createdAt,value
2023-04-05T00:00:39.608Z,79.46
2023-04-05T00:08:26.849Z,79.58
2023-04-05T00:16:02.818Z,79.83
2023-04-05T00:23:40.113Z,80.55
2023-04-05T00:31:15.897Z,81.87
2023-04-05T00:38:50.561Z,81.68
2023-04-05T00:46:27.695Z,82.91
2023-04-05T00:54:03.112Z,83.74
2023-04-05T01:01:42.174Z,85.45
2023-04-05T01:09:34.492Z,85.67
2023-04-05T01:17:10.686Z,86.18
2023-04-05T01:25:19.570Z,85.66
2023-04-05T01:33:07.379Z,86.59
2023-04-05T01:40:42.613Z,87.19
2023-04-05T01:48:18.196Z,87.39
2023-04-05T01:55:52.738Z,87.91
2023-04-05T02:27:10.942Z,89.29
2023-04-05T02:34:47.004Z,90.60
2023-04-05T02:42:21.164Z,90.96
2023-04-05T02:49:56.320Z,91.34
2023-04-05T02:57:30.034Z,91.48
2023-04-05T03:05:05.841Z,92.13
2023-04-05T03:12:39.749Z,92.98
2023-04-05T03:20:15.289Z,93.41
2023-04-05T03:27:49.112Z,94.36
2023-04-05T03:35:24.450Z,96.12
2023-04-05T03:42:58.489Z,96.96
2023-04-05T03:50:33.890Z,98.12
2023-04-05T03:58:07.942Z,97.92
2023-04-05T04:13:34.737Z,96.83
2023-04-05T04:21:10.903Z,97.59
2023-04-05T04:28:44.786Z,99.31
2023-04-05T04:36:26.769Z,100.00
2023-04-05T04:44:02.992Z,100.00
2023-04-05T05:07:24.705Z,100.00
2023-04-05T05:14:58.937Z,100.00
2023-04-05T05:22:33.973Z,100.00
2023-04-05T05:30:09.297Z,100.00
2023-04-05T05:37:44.716Z,100.00
2023-04-05T05:45:18.858Z,100.00
2023-04-05T05:52:54.844Z,100.00
2023-04-05T06:08:22.107Z,98.86
2023-04-05T06:15:55.970Z,97.12
2023-04-05T06:23:31.367Z,96.39
2023-04-05T06:31:06.632Z,92.77
2023-04-05T06:38:41.874Z,92.48
2023-04-05T06:46:15.749Z,89.81
2023-04-05T06:53:51.074Z,86.60
2023-04-05T07:01:26.278Z,86.49
2023-04-05T07:09:01.621Z,79.24
2023-04-05T07:16:35.656Z,79.64
2023-04-05T07:24:11.244Z,79.33
2023-04-05T07:31:45.543Z,78.81
2023-04-05T07:39:21.478Z,78.05
2023-04-05T07:46:55.335Z,77.53
2023-04-05T07:54:32.708Z,77.67
2023-04-05T08:02:14.418Z,77.56
2023-04-05T08:09:50.585Z,77.81
2023-04-05T08:17:27.192Z,77.42
2023-04-05T08:25:02.651Z,76.27
2023-04-05T08:32:36.829Z,75.34
2023-04-05T08:40:13.903Z,71.04
2023-04-05T08:47:50.573Z,72.43
2023-04-05T08:55:27.077Z,69.50
2023-04-05T09:10:38.602Z,64.83
2023-04-05T09:18:25.616Z,64.33
2023-04-05T09:26:04.639Z,62.73
2023-04-05T09:33:39.412Z,62.18
2023-04-05T09:41:14.732Z,61.13
2023-04-05T09:48:49.315Z,60.72
2023-04-05T09:56:24.702Z,59.25
2023-04-05T10:04:00.052Z,58.17
2023-04-05T10:11:37.033Z,58.78
2023-04-05T10:19:17.861Z,57.06
2023-04-05T10:27:02.121Z,58.42
2023-04-05T10:34:43.994Z,58.09
2023-04-05T10:42:28.245Z,57.84
2023-04-05T10:50:05.298Z,55.46
2023-04-05T10:57:41.346Z,57.35
2023-04-05T11:05:35.228Z,57.32
2023-04-05T11:13:12.013Z,57.76
2023-04-05T11:20:51.806Z,58.00
2023-04-05T11:28:31.762Z,58.67
2023-04-05T11:36:07.098Z,58.07
2023-04-05T11:43:43.452Z,57.26
2023-04-05T11:51:18.634Z,57.16
2023-04-05T11:58:53.823Z,56.55
2023-04-05T12:06:28.211Z,55.63
2023-04-05T12:14:04.054Z,57.61
2023-04-05T12:21:38.619Z,55.50
2023-04-05T12:29:13.945Z,54.89
2023-04-05T12:36:48.729Z,55.83
2023-04-05T12:44:31.753Z,57.03
2023-04-05T12:52:05.842Z,57.44
2023-04-05T12:59:41.412Z,56.89
2023-04-05T13:07:15.226Z,58.50
2023-04-05T13:14:50.682Z,60.38
2023-04-05T13:22:24.621Z,59.36
2023-04-05T13:30:00.181Z,57.47
2023-04-05T13:37:34.473Z,56.73
2023-04-05T13:45:10.943Z,57.15
2023-04-05T13:52:45.455Z,56.28
2023-04-05T14:00:21.248Z,56.01
2023-04-05T14:15:48.262Z,55.64
2023-04-05T14:23:23.865Z,56.42
2023-04-05T14:30:59.922Z,56.49
2023-04-05T14:38:33.866Z,56.56
2023-04-05T14:46:09.166Z,54.80
2023-04-05T14:53:43.284Z,56.74
2023-04-05T15:01:18.793Z,53.26
2023-04-05T15:08:52.743Z,51.38
2023-04-05T15:16:29.337Z,50.55
2023-04-05T15:24:03.451Z,51.13
2023-04-05T15:31:39.425Z,51.18
2023-04-05T15:39:13.740Z,51.79
2023-04-05T15:46:49.132Z,51.79
2023-04-05T15:54:23.001Z,52.31
2023-04-05T16:01:58.518Z,50.96
2023-04-05T16:09:32.547Z,51.82
2023-04-05T16:17:07.842Z,51.58
2023-04-05T16:24:41.870Z,53.62
2023-04-05T16:32:17.410Z,54.72
2023-04-05T16:39:51.794Z,55.44
2023-04-05T16:47:27.228Z,55.69
2023-04-05T16:55:01.657Z,56.69
2023-04-05T17:02:36.995Z,56.71
2023-04-05T17:10:11.364Z,57.03
2023-04-05T17:17:46.820Z,58.69
2023-04-05T17:25:21.043Z,59.33
2023-04-05T17:32:57.201Z,60.22
2023-04-05T17:40:31.584Z,60.86
2023-04-05T17:48:07.399Z,61.80
2023-04-05T17:55:41.398Z,62.40
2023-04-05T18:03:17.967Z,63.35
2023-04-05T18:10:57.576Z,63.85
2023-04-05T18:18:32.980Z,64.30
2023-04-05T18:26:08.491Z,66.37
2023-04-05T18:33:44.285Z,68.19
2023-04-05T18:41:18.151Z,69.15
2023-04-05T18:56:46.231Z,71.08
2023-04-05T19:04:21.986Z,71.28
2023-04-05T19:11:56.659Z,71.58
2023-04-05T19:19:32.100Z,71.00
2023-04-05T19:27:06.160Z,70.94
2023-04-05T19:34:41.588Z,70.84
2023-04-05T19:42:15.552Z,71.52
2023-04-05T19:49:52.624Z,69.92
2023-04-05T19:57:27.002Z,70.52
2023-04-05T20:05:02.928Z,71.32
2023-04-05T20:12:36.907Z,71.63
2023-04-05T20:20:14.780Z,72.59
2023-04-05T20:35:41.988Z,72.88
2023-04-05T20:43:16.201Z,73.08
2023-04-05T20:50:51.522Z,73.64
2023-04-05T20:58:25.667Z,75.14
2023-04-05T21:06:01.986Z,75.12
2023-04-05T21:13:36.034Z,75.66
2023-04-05T21:21:11.312Z,75.64
2023-04-05T21:28:45.720Z,75.78
2023-04-05T21:36:21.348Z,76.76
2023-04-05T21:43:55.449Z,77.03
2023-04-05T21:51:30.907Z,77.46
2023-04-05T21:59:05.007Z,77.73
2023-04-05T22:06:40.957Z,78.93
2023-04-05T22:14:14.801Z,79.63
2023-04-05T22:21:50.412Z,80.55
2023-04-05T22:29:24.620Z,80.91
2023-04-05T22:37:00.183Z,81.58
2023-04-05T22:44:34.333Z,82.15
2023-04-05T22:52:09.724Z,82.88
2023-04-05T22:59:43.782Z,83.79
2023-04-05T23:07:19.276Z,84.45
2023-04-05T23:14:53.369Z,84.29
2023-04-05T23:22:28.682Z,84.70
2023-04-05T23:30:02.723Z,84.98
2023-04-05T23:37:38.266Z,85.32
2023-04-05T23:45:12.660Z,85.53
2023-04-05T23:52:48.115Z,86.37
